Time;durP1;ratioP1;P1;durP2;ratioP2;P2;SDS_P1;SDS_P2;PMS_P1;PMS_P2;Temp;Humidity;BMP_temperature;BMP_pressure;BME280_temperature;BME280_humidity;BME280_pressure;Samples;Min_cycle;Max_cycle;Signal;HPM_P1;HPM_P2
2022/07/02 00:01:23;;;;;;;1.67;1.20;;;15.20;99.90;;;;;;5024184;28;20059;-68
2022/07/02 00:03:55;;;;;;;4.30;1.10;;;15.20;99.90;;;;;;5024815;28;20030;-68
2022/07/02 00:06:25;;;;;;;2.83;1.63;;;15.30;99.90;;;;;;5024438;28;20018;-68
2022/07/02 00:08:51;;;;;;;0.90;0.90;;;15.20;99.90;;;;;;5024499;28;20029;-69
2022/07/02 00:11:17;;;;;;;3.38;1.55;;;15.30;99.90;;;;;;5024212;28;20026;-69
2022/07/02 00:13:43;;;;;;;1.95;1.45;;;15.30;99.90;;;;;;5024381;28;20572;-69
2022/07/02 00:16:12;;;;;;;1.17;1.08;;;15.20;99.90;;;;;;5024236;28;20036;-69
2022/07/02 00:18:38;;;;;;;3.38;1.35;;;15.20;99.90;;;;;;5024424;28;20036;-69
2022/07/02 00:21:04;;;;;;;2.83;1.55;;;15.20;99.90;;;;;;5023728;28;20045;-68
2022/07/02 00:23:30;;;;;;;2.25;1.23;;;15.20;99.90;;;;;;5022682;28;20133;-68
2022/07/02 00:26:24;;;;;;;2.20;1.50;;;15.20;99.90;;;;;;5024125;28;20105;-69
2022/07/02 00:28:58;;;;;;;2.10;1.27;;;15.20;99.90;;;;;;5023616;28;20069;-68
2022/07/02 00:31:23;;;;;;;1.20;0.80;;;15.20;99.90;;;;;;5023734;28;20026;-70
2022/07/02 00:33:49;;;;;;;1.60;1.45;;;15.20;99.90;;;;;;5024003;28;20049;-69
2022/07/02 00:36:21;;;;;;;3.75;1.85;;;15.30;99.90;;;;;;5023581;28;20077;-70
2022/07/02 00:38:50;;;;;;;1.40;0.77;;;15.20;99.90;;;;;;5023791;28;20022;-69
2022/07/02 00:41:17;;;;;;;1.88;1.38;;;15.20;99.90;;;;;;5023337;28;20038;-68
2022/07/02 00:43:45;;;;;;;1.30;1.13;;;15.20;99.90;;;;;;5023646;28;20018;-68
2022/07/02 00:46:12;;;;;;;5.20;1.40;;;15.10;99.90;;;;;;5023094;28;20030;-70
2022/07/02 00:48:39;;;;;;;1.83;1.10;;;15.10;99.90;;;;;;5023404;28;20034;-70
2022/07/02 00:51:04;;;;;;;1.58;1.23;;;15.00;99.90;;;;;;5023585;28;20033;-69
2022/07/02 00:53:30;;;;;;;1.92;1.25;;;14.90;99.90;;;;;;5023729;28;20022;-70
2022/07/02 00:55:59;;;;;;;2.55;1.42;;;14.90;99.90;;;;;;5023882;28;20445;-69
2022/07/02 00:58:28;;;;;;;2.22;1.38;;;14.90;99.90;;;;;;5023956;28;20029;-70
2022/07/02 01:00:54;;;;;;;3.88;1.88;;;14.90;99.90;;;;;;5021970;28;20402;-70
2022/07/02 01:03:21;;;;;;;2.72;1.55;;;14.80;99.90;;;;;;5023097;28;20040;-70
2022/07/02 01:05:49;;;;;;;3.40;1.45;;;14.80;99.90;;;;;;5023057;28;20036;-70
2022/07/02 01:11:10;;;;;;;1.90;0.93;;;14.90;99.90;;;;;;5023190;28;20048;-70
2022/07/02 01:13:35;;;;;;;2.15;1.50;;;14.90;99.90;;;;;;5023603;28;20090;-70
2022/07/02 01:16:01;;;;;;;2.30;1.58;;;14.90;99.90;;;;;;5022894;28;20034;-70
2022/07/02 01:18:27;;;;;;;5.47;1.88;;;14.90;99.90;;;;;;5022648;28;20027;-69
2022/07/02 01:20:53;;;;;;;10.35;1.33;;;15.00;99.90;;;;;;5023321;28;20068;-70
2022/07/02 01:23:19;;;;;;;2.08;1.55;;;14.90;99.90;;;;;;5023109;28;20089;-69
2022/07/02 01:25:52;;;;;;;2.08;1.60;;;14.90;99.90;;;;;;5022605;28;20034;-70
2022/07/02 01:28:19;;;;;;;2.38;1.42;;;14.80;99.90;;;;;;5022883;28;20022;-70
2022/07/02 01:30:46;;;;;;;6.95;2.28;;;14.80;99.90;;;;;;5022535;28;20021;-69
2022/07/02 01:33:11;;;;;;;5.18;1.50;;;14.80;99.90;;;;;;5022600;28;20132;-69
2022/07/02 01:35:37;;;;;;;2.45;1.35;;;14.70;99.90;;;;;;5022829;28;20033;-70
2022/07/02 01:38:03;;;;;;;4.32;1.83;;;14.80;99.90;;;;;;5022294;28;20021;-70
2022/07/02 01:40:29;;;;;;;2.50;1.52;;;14.70;99.90;;;;;;5023063;28;20033;-70
2022/07/02 01:42:55;;;;;;;1.67;1.35;;;14.70;99.90;;;;;;5022489;28;20018;-70
2022/07/02 01:45:20;;;;;;;3.13;1.40;;;14.60;99.90;;;;;;5022580;28;20057;-69
2022/07/02 01:47:46;;;;;;;2.65;1.63;;;14.60;99.90;;;;;;5021269;28;20621;-69
2022/07/02 01:50:12;;;;;;;8.25;1.67;;;14.60;99.90;;;;;;5022124;28;20052;-69
2022/07/02 01:52:38;;;;;;;2.85;1.35;;;14.60;99.90;;;;;;5022156;28;20022;-70
2022/07/02 01:55:04;;;;;;;7.68;1.60;;;14.50;99.90;;;;;;5022398;28;20033;-70
2022/07/02 01:57:33;;;;;;;3.17;1.77;;;14.60;99.90;;;;;;5022130;28;20034;-70
2022/07/02 01:59:59;;;;;;;2.40;1.77;;;14.60;99.90;;;;;;5022743;28;20029;-70
2022/07/02 02:02:25;;;;;;;2.08;1.48;;;14.50;99.90;;;;;;5022378;28;20124;-70
2022/07/02 02:04:51;;;;;;;3.20;1.73;;;14.50;99.90;;;;;;5021295;28;20417;-69
2022/07/02 02:07:17;;;;;;;4.65;1.98;;;14.40;99.90;;;;;;5022491;28;20089;-70
2022/07/02 02:09:43;;;;;;;2.40;1.73;;;14.40;99.90;;;;;;5021991;28;20096;-70
2022/07/02 02:12:09;;;;;;;3.15;2.13;;;14.40;99.90;;;;;;5021915;28;20022;-69
2022/07/02 02:14:35;;;;;;;4.20;1.80;;;14.40;99.90;;;;;;5022061;28;20098;-69
2022/07/02 02:17:00;;;;;;;3.20;1.98;;;14.40;99.90;;;;;;5021355;28;20042;-70
2022/07/02 02:19:27;;;;;;;2.25;1.52;;;14.40;99.90;;;;;;5021981;28;20030;-72
2022/07/02 02:21:53;;;;;;;3.38;1.95;;;14.40;99.90;;;;;;5021791;28;20140;-70
2022/07/02 02:24:18;;;;;;;2.38;1.65;;;14.40;99.90;;;;;;5021643;28;20030;-70
2022/07/02 02:26:44;;;;;;;6.20;1.92;;;14.30;99.90;;;;;;5021998;28;21132;-70
2022/07/02 02:29:10;;;;;;;2.33;1.90;;;14.30;99.90;;;;;;5022174;28;20493;-69
2022/07/02 02:31:35;;;;;;;2.45;1.70;;;14.20;99.90;;;;;;5021443;28;20033;-70
2022/07/02 02:34:01;;;;;;;3.22;1.88;;;14.10;99.90;;;;;;5021930;28;20044;-70
2022/07/02 02:36:28;;;;;;;3.20;1.90;;;14.10;99.90;;;;;;5022200;28;20025;-71
2022/07/02 02:38:54;;;;;;;3.00;1.65;;;14.00;99.90;;;;;;5021547;28;20028;-71
2022/07/02 02:41:20;;;;;;;3.63;2.00;;;14.00;99.90;;;;;;5021760;28;20042;-70
2022/07/02 02:43:45;;;;;;;2.60;1.15;;;13.90;99.90;;;;;;5022129;28;20033;-70
2022/07/02 02:46:11;;;;;;;4.05;2.13;;;13.90;99.90;;;;;;5021466;28;20397;-70
2022/07/02 02:48:37;;;;;;;3.47;2.15;;;13.90;99.90;;;;;;5021761;28;20053;-71
2022/07/02 02:51:04;;;;;;;3.78;1.70;;;13.90;99.90;;;;;;5021512;28;20026;-70
2022/07/02 02:53:31;;;;;;;2.97;1.48;;;13.90;99.90;;;;;;5020703;28;20021;-70
2022/07/02 02:55:58;;;;;;;17.48;2.30;;;13.90;99.90;;;;;;5021908;28;20022;-70
2022/07/02 02:58:25;;;;;;;2.35;1.85;;;13.90;99.90;;;;;;5021604;28;20045;-70
2022/07/02 03:00:51;;;;;;;5.03;2.97;;;13.90;99.90;;;;;;5021596;28;20038;-70
2022/07/02 03:03:16;;;;;;;4.28;2.00;;;13.90;99.90;;;;;;5021704;28;20114;-69
2022/07/02 03:05:42;;;;;;;4.65;2.05;;;13.90;99.90;;;;;;5021419;28;20029;-69
2022/07/02 03:08:07;;;;;;;2.30;1.65;;;13.90;99.90;;;;;;5021072;28;20061;-70
2022/07/02 03:10:33;;;;;;;4.55;1.70;;;13.90;99.90;;;;;;5021612;28;20032;-69
2022/07/02 03:12:59;;;;;;;3.08;2.15;;;13.90;99.90;;;;;;5021107;28;20034;-70
2022/07/02 03:15:25;;;;;;;2.20;2.00;;;14.00;99.90;;;;;;5021545;28;20112;-69
2022/07/02 03:17:50;;;;;;;3.55;2.00;;;14.00;99.90;;;;;;5021549;28;20537;-68
2022/07/02 03:20:16;;;;;;;3.63;1.92;;;14.00;99.90;;;;;;5021538;28;20058;-69
2022/07/02 03:22:42;;;;;;;2.47;1.88;;;14.00;99.90;;;;;;5021307;28;20033;-70
2022/07/02 03:25:08;;;;;;;9.32;2.08;;;13.90;99.90;;;;;;5021341;28;20053;-70
2022/07/02 03:27:34;;;;;;;3.97;1.85;;;14.00;99.90;;;;;;5021909;28;20030;-68
2022/07/02 03:30:00;;;;;;;4.50;2.40;;;14.00;99.90;;;;;;5024998;28;20034;-70
2022/07/02 03:32:28;;;;;;;2.83;2.08;;;14.00;99.90;;;;;;5025016;28;20018;-69
2022/07/02 03:34:54;;;;;;;3.97;2.22;;;13.90;99.90;;;;;;5024332;28;20056;-69
2022/07/02 03:37:23;;;;;;;3.38;2.35;;;13.90;99.90;;;;;;5024428;28;20030;-69
2022/07/02 03:39:48;;;;;;;3.80;2.20;;;13.90;99.90;;;;;;5024854;28;20057;-69
2022/07/02 03:42:14;;;;;;;4.18;2.45;;;13.80;99.90;;;;;;5024733;28;20597;-69
2022/07/02 03:44:40;;;;;;;4.50;2.92;;;13.80;99.90;;;;;;5025320;28;20078;-69
2022/07/02 03:47:05;;;;;;;3.08;2.20;;;13.80;99.90;;;;;;5024679;28;20042;-69
2022/07/02 03:49:31;;;;;;;5.70;2.53;;;13.70;99.90;;;;;;5024229;28;20053;-70
2022/07/02 03:51:57;;;;;;;4.40;2.63;;;13.70;99.90;;;;;;5025061;28;20057;-69
2022/07/02 03:54:22;;;;;;;2.97;2.05;;;13.70;99.90;;;;;;5025061;28;20042;-69
2022/07/02 03:56:48;;;;;;;3.53;2.38;;;13.60;99.90;;;;;;5024720;28;20045;-70
2022/07/02 03:59:14;;;;;;;3.60;2.15;;;13.70;99.90;;;;;;5025023;28;20057;-69
2022/07/02 04:01:39;;;;;;;4.30;2.25;;;13.70;99.90;;;;;;5024676;28;20041;-70
2022/07/02 04:04:05;;;;;;;3.88;2.00;;;13.80;99.90;;;;;;5024536;28;20037;-70
2022/07/02 04:06:30;;;;;;;2.33;2.10;;;13.80;99.90;;;;;;5024346;28;20084;-69
2022/07/02 04:08:56;;;;;;;8.85;2.78;;;13.80;99.90;;;;;;5024617;28;20085;-70
2022/07/02 04:11:22;;;;;;;4.30;2.90;;;13.80;99.90;;;;;;5024007;28;20034;-69
2022/07/02 04:13:47;;;;;;;3.60;2.67;;;13.90;99.90;;;;;;5024929;28;20030;-69
2022/07/02 04:16:13;;;;;;;4.90;2.15;;;13.90;99.90;;;;;;5024583;28;20057;-70
2022/07/02 04:18:39;;;;;;;3.72;2.42;;;13.90;99.90;;;;;;5024130;28;20022;-70
2022/07/02 04:21:04;;;;;;;4.80;2.25;;;14.00;99.90;;;;;;5024133;28;20049;-69
2022/07/02 04:23:30;;;;;;;4.97;2.85;;;14.00;99.90;;;;;;5024370;28;20064;-70
2022/07/02 04:25:56;;;;;;;5.70;2.83;;;14.00;99.90;;;;;;5024087;28;20038;-70
2022/07/02 04:28:23;;;;;;;13.93;3.63;;;14.00;99.90;;;;;;5024539;28;20029;-70
2022/07/02 04:30:49;;;;;;;5.80;2.58;;;14.00;99.90;;;;;;5023688;28;20022;-69
2022/07/02 04:33:14;;;;;;;3.65;2.45;;;14.10;99.90;;;;;;5023911;28;20056;-69
2022/07/02 04:35:40;;;;;;;3.40;2.35;;;14.10;99.90;;;;;;5024282;28;20030;-70
2022/07/02 04:38:05;;;;;;;4.10;2.58;;;14.10;99.90;;;;;;5023902;28;20026;-69
2022/07/02 04:40:31;;;;;;;5.18;2.92;;;14.10;99.90;;;;;;5022801;28;20078;-71
2022/07/02 04:42:57;;;;;;;4.32;2.60;;;14.20;99.90;;;;;;5024370;28;20033;-70
2022/07/02 04:45:22;;;;;;;4.32;2.53;;;14.20;99.90;;;;;;5023635;28;20026;-70
2022/07/02 04:47:48;;;;;;;3.75;2.53;;;14.20;99.90;;;;;;5023669;28;20073;-70
2022/07/02 04:50:14;;;;;;;4.00;2.33;;;14.20;99.90;;;;;;5023443;28;20543;-70
2022/07/02 04:52:39;;;;;;;9.57;2.60;;;14.20;99.90;;;;;;5023298;28;20034;-69
2022/07/02 04:55:05;;;;;;;6.40;3.08;;;14.30;99.90;;;;;;5023382;28;20105;-70
2022/07/02 04:57:31;;;;;;;6.45;3.15;;;14.30;99.90;;;;;;5023923;28;20033;-70
2022/07/02 04:59:57;;;;;;;4.35;2.75;;;14.30;99.90;;;;;;5023805;28;20026;-70
2022/07/02 05:02:23;;;;;;;4.35;2.78;;;14.40;99.90;;;;;;5023674;28;20040;-71
2022/07/02 05:04:49;;;;;;;4.40;2.78;;;14.40;99.90;;;;;;5023060;28;20044;-70
2022/07/02 05:07:15;;;;;;;7.03;2.53;;;14.40;99.90;;;;;;5022567;28;20030;-70
2022/07/02 05:09:40;;;;;;;4.03;2.58;;;14.40;99.90;;;;;;5022807;28;20030;-70
2022/07/02 05:12:06;;;;;;;10.85;3.22;;;14.40;99.90;;;;;;5023455;28;20549;-70
2022/07/02 05:14:32;;;;;;;5.03;2.92;;;14.50;99.90;;;;;;5022980;28;20026;-70
2022/07/02 05:16:57;;;;;;;13.07;3.35;;;14.50;99.90;;;;;;5023706;28;20028;-69
2022/07/02 05:19:24;;;;;;;3.63;2.45;;;14.60;99.90;;;;;;5021647;28;20110;-71
2022/07/02 05:21:50;;;;;;;4.93;2.72;;;14.60;99.90;;;;;;5021083;28;20041;-70
2022/07/02 05:24:15;;;;;;;8.57;3.22;;;14.70;99.90;;;;;;5023138;28;20053;-70
2022/07/02 05:26:41;;;;;;;4.85;2.60;;;14.70;99.90;;;;;;5022468;28;20052;-69
2022/07/02 05:29:07;;;;;;;4.03;2.70;;;14.80;99.90;;;;;;5022828;28;20049;-69
2022/07/02 05:31:32;;;;;;;10.73;2.80;;;14.80;99.90;;;;;;5022418;28;20038;-70
2022/07/02 05:33:58;;;;;;;15.18;3.45;;;14.90;99.90;;;;;;5022506;28;20115;-70
2022/07/02 05:36:24;;;;;;;6.68;3.38;;;15.00;99.90;;;;;;5021321;28;20026;-69
2022/07/02 05:38:49;;;;;;;4.93;2.67;;;15.00;99.90;;;;;;5022717;28;20017;-69
2022/07/02 05:41:15;;;;;;;7.00;3.03;;;15.10;99.90;;;;;;5022381;28;20053;-69
2022/07/02 05:43:40;;;;;;;4.30;2.08;;;15.20;99.90;;;;;;5022799;28;20049;-69
2022/07/02 05:46:06;;;;;;;4.25;2.97;;;15.20;99.90;;;;;;5022702;28;20033;-69
2022/07/02 05:48:32;;;;;;;3.28;2.20;;;15.30;99.90;;;;;;5022261;28;20501;-71
2022/07/02 05:50:57;;;;;;;4.85;2.50;;;15.30;99.90;;;;;;5020781;28;20029;-70
2022/07/02 05:53:23;;;;;;;4.97;2.78;;;15.40;99.90;;;;;;5022087;28;21423;-70
2022/07/02 05:55:48;;;;;;;5.07;2.53;;;15.40;99.90;;;;;;5022209;28;20037;-70
2022/07/02 05:58:14;;;;;;;5.65;2.40;;;15.40;99.90;;;;;;5021891;28;20034;-71
2022/07/02 06:00:40;;;;;;;16.75;2.22;;;15.60;99.90;;;;;;5022627;28;20109;-69
2022/07/02 06:03:05;;;;;;;6.72;2.47;;;15.70;99.90;;;;;;5022475;28;20029;-69
2022/07/02 06:08:16;;;;;;;15.02;2.92;;;15.80;99.90;;;;;;5017194;28;20071;-68
2022/07/02 06:10:41;;;;;;;8.27;1.98;;;15.90;99.90;;;;;;5018918;28;20037;-70
2022/07/02 06:13:07;;;;;;;5.03;2.90;;;16.00;99.90;;;;;;5021741;28;20030;-68
2022/07/02 06:15:33;;;;;;;7.90;2.35;;;16.10;99.90;;;;;;5022058;28;20026;-69
2022/07/02 06:18:00;;;;;;;10.82;3.08;;;16.10;99.90;;;;;;5019997;28;20056;-69
2022/07/02 06:20:26;;;;;;;3.40;2.42;;;16.20;99.90;;;;;;5018924;28;20070;-73
2022/07/02 06:22:52;;;;;;;11.77;3.38;;;16.30;99.90;;;;;;5021364;28;20133;-68
2022/07/02 06:25:19;;;;;;;16.10;2.63;;;16.40;99.90;;;;;;5021796;28;20557;-72
2022/07/02 06:27:45;;;;;;;3.05;1.90;;;16.50;99.90;;;;;;5021745;28;20030;-69
2022/07/02 06:30:11;;;;;;;4.32;2.75;;;16.50;99.90;;;;;;5021706;28;20010;-70
2022/07/02 06:32:37;;;;;;;3.63;2.00;;;16.60;99.90;;;;;;5020604;28;20018;-79
2022/07/02 06:35:03;;;;;;;8.93;1.88;;;16.70;99.90;;;;;;5018595;28;20029;-69
2022/07/02 06:37:29;;;;;;;4.28;1.50;;;16.80;99.90;;;;;;5020933;28;20033;-71
2022/07/02 06:39:55;;;;;;;3.95;1.65;;;16.90;99.90;;;;;;5020900;28;20022;-69
2022/07/02 06:42:26;;;;;;;4.63;2.05;;;17.00;99.90;;;;;;5020446;28;20127;-72
2022/07/02 06:44:53;;;;;;;2.25;1.52;;;17.10;99.90;;;;;;5020862;28;20057;-68
2022/07/02 06:47:19;;;;;;;6.03;1.42;;;17.10;99.90;;;;;;5021015;28;20496;-70
2022/07/02 06:49:45;;;;;;;1.83;1.00;;;17.20;99.90;;;;;;5021769;28;20037;-71
2022/07/02 06:52:11;;;;;;;11.65;1.63;;;17.30;99.90;;;;;;5021877;28;20021;-70
2022/07/02 06:54:38;;;;;;;11.57;1.73;;;17.40;99.90;;;;;;5021519;28;20066;-69
2022/07/02 06:57:04;;;;;;;2.30;1.15;;;17.40;99.90;;;;;;5020104;28;20036;-70
2022/07/02 06:59:31;;;;;;;1.55;1.25;;;17.50;99.90;;;;;;5020966;28;20037;-69
2022/07/02 07:01:57;;;;;;;2.10;1.23;;;17.60;99.90;;;;;;5021449;28;20046;-70
2022/07/02 07:04:23;;;;;;;1.45;1.08;;;17.70;99.90;;;;;;5024877;28;20022;-71
2022/07/02 07:06:52;;;;;;;4.88;1.35;;;17.80;99.90;;;;;;5025656;28;20045;-70
2022/07/02 07:09:18;;;;;;;5.78;0.95;;;17.90;99.90;;;;;;5024947;28;20018;-71
2022/07/02 07:11:44;;;;;;;8.90;1.30;;;17.90;99.90;;;;;;5025910;28;20036;-70
2022/07/02 07:14:10;;;;;;;1.92;1.00;;;18.00;99.90;;;;;;5025208;28;20037;-69
2022/07/02 07:16:36;;;;;;;0.80;0.80;;;18.00;99.90;;;;;;5025611;28;20061;-69
2022/07/02 07:19:04;;;;;;;2.10;1.20;;;18.20;99.90;;;;;;5025070;28;20032;-71
2022/07/02 07:21:30;;;;;;;4.07;1.55;;;18.20;99.90;;;;;;5024904;28;20041;-70
2022/07/02 07:23:56;;;;;;;3.33;0.90;;;18.30;99.90;;;;;;5025255;28;20475;-75
2022/07/02 07:26:21;;;;;;;2.28;1.23;;;18.40;99.90;;;;;;5025933;28;20025;-71
2022/07/02 07:28:47;;;;;;;1.65;0.80;;;18.40;99.90;;;;;;5024693;28;20037;-70
2022/07/02 07:31:12;;;;;;;5.93;1.23;;;18.50;99.90;;;;;;5025184;28;21124;-70
2022/07/02 07:33:39;;;;;;;0.95;0.70;;;18.60;99.90;;;;;;5025111;28;20053;-73
2022/07/02 07:36:05;;;;;;;1.40;0.77;;;18.60;99.90;;;;;;5024726;28;20477;-68
2022/07/02 07:38:30;;;;;;;5.07;1.45;;;18.80;99.90;;;;;;5025338;28;20053;-71
2022/07/02 07:40:56;;;;;;;1.83;1.13;;;18.90;99.90;;;;;;5025245;28;20088;-71
2022/07/02 07:43:21;;;;;;;2.45;1.25;;;18.90;99.90;;;;;;5024919;28;20014;-71
2022/07/02 07:45:47;;;;;;;2.08;1.30;;;19.00;99.90;;;;;;5025276;28;20050;-71
2022/07/02 07:48:13;;;;;;;1.83;1.15;;;19.10;99.90;;;;;;5024697;28;20068;-73
2022/07/02 07:50:39;;;;;;;2.10;1.25;;;19.20;99.90;;;;;;5023240;28;20057;-70
2022/07/02 07:53:05;;;;;;;3.05;1.23;;;19.20;99.90;;;;;;5021228;28;20057;-69
2022/07/02 07:55:30;;;;;;;6.82;1.00;;;19.20;99.90;;;;;;5023996;28;20021;-69
2022/07/02 07:57:57;;;;;;;2.10;1.40;;;19.30;99.90;;;;;;5024592;28;20037;-71
2022/07/02 08:00:22;;;;;;;1.55;0.90;;;19.40;99.90;;;;;;5024853;28;20371;-69
2022/07/02 08:02:48;;;;;;;3.00;1.15;;;19.40;99.90;;;;;;5023902;28;20060;-70
2022/07/02 08:05:13;;;;;;;2.35;0.95;;;19.50;99.90;;;;;;5024590;28;20358;-69
2022/07/02 08:07:40;;;;;;;6.85;1.75;;;19.60;99.90;;;;;;5021578;28;20026;-70
2022/07/02 08:10:07;;;;;;;3.88;1.65;;;19.70;99.90;;;;;;5023903;28;20025;-69
2022/07/02 08:12:32;;;;;;;1.77;1.10;;;19.70;99.90;;;;;;5023825;28;20026;-75
2022/07/02 08:14:59;;;;;;;9.93;1.23;;;19.80;99.90;;;;;;5023396;28;20419;-72
2022/07/02 08:17:26;;;;;;;4.63;0.98;;;19.80;99.90;;;;;;5023976;28;20032;-72
2022/07/02 08:19:52;;;;;;;8.98;1.85;;;19.90;99.90;;;;;;5024484;28;20502;-70
2022/07/02 08:22:19;;;;;;;1.35;0.77;;;20.00;99.90;;;;;;5021942;28;20113;-69
2022/07/02 08:24:45;;;;;;;6.68;0.70;;;20.10;99.90;;;;;;5024244;28;20021;-72
2022/07/02 08:27:11;;;;;;;2.42;0.98;;;20.10;99.90;;;;;;5024156;28;20111;-69
2022/07/02 08:29:36;;;;;;;1.27;1.05;;;20.10;99.90;;;;;;5024090;28;20119;-73
2022/07/02 08:32:03;;;;;;;0.70;0.47;;;20.30;99.90;;;;;;5022668;28;20022;-70
2022/07/02 08:34:30;;;;;;;7.45;1.40;;;20.30;99.90;;;;;;5024448;28;20033;-70
2022/07/02 08:36:56;;;;;;;2.78;1.20;;;20.30;99.90;;;;;;5023911;28;20068;-69
2022/07/02 08:39:22;;;;;;;1.10;0.75;;;20.50;99.90;;;;;;5024419;28;20018;-71
2022/07/02 08:41:49;;;;;;;2.53;0.90;;;20.50;99.90;;;;;;5023886;28;20042;-70
2022/07/02 08:44:18;;;;;;;5.18;0.80;;;20.60;99.90;;;;;;5023785;28;20053;-72
2022/07/02 08:46:45;;;;;;;0.88;0.63;;;20.70;99.90;;;;;;5023453;28;20615;-74
2022/07/02 08:49:11;;;;;;;1.08;0.82;;;20.80;99.90;;;;;;5023823;28;20022;-69
2022/07/02 08:51:36;;;;;;;4.07;0.65;;;20.90;99.90;;;;;;5023607;28;20069;-69
2022/07/02 08:54:02;;;;;;;2.03;0.68;;;21.00;99.90;;;;;;5021885;28;20037;-71
2022/07/02 08:56:31;;;;;;;1.25;0.95;;;21.10;99.90;;;;;;5023599;28;20045;-73
2022/07/02 08:58:58;;;;;;;0.95;0.60;;;21.30;99.90;;;;;;5023298;28;20029;-71
2022/07/02 09:01:25;;;;;;;3.25;1.08;;;21.30;99.90;;;;;;5022145;28;20445;-74
2022/07/02 09:03:53;;;;;;;1.20;0.60;;;21.40;99.90;;;;;;5021345;28;20034;-76
2022/07/02 09:06:21;;;;;;;0.77;0.55;;;21.50;99.90;;;;;;5023043;28;20022;-72
2022/07/02 09:08:48;;;;;;;2.65;1.23;;;21.50;99.90;;;;;;5023331;28;20034;-76
2022/07/02 09:11:14;;;;;;;7.10;0.82;;;21.50;99.90;;;;;;5022395;28;20079;-69
2022/07/02 09:13:40;;;;;;;2.13;1.30;;;21.60;99.90;;;;;;5023627;28;20022;-72
2022/07/02 09:16:06;;;;;;;3.40;1.20;;;21.70;99.90;;;;;;5023410;28;20022;-74
2022/07/02 09:18:33;;;;;;;2.90;0.88;;;21.70;99.90;;;;;;5022761;28;20046;-70
2022/07/02 09:20:58;;;;;;;4.78;0.63;;;21.50;99.90;;;;;;5023319;28;20486;-71
2022/07/02 09:23:24;;;;;;;3.20;1.02;;;21.40;99.90;;;;;;5022857;28;20030;-75
2022/07/02 09:25:50;;;;;;;3.25;1.00;;;21.40;99.90;;;;;;5022609;28;20033;-69
2022/07/02 09:28:20;;;;;;;16.65;1.05;;;21.40;99.90;;;;;;5020806;28;20060;-73
2022/07/02 09:30:47;;;;;;;1.67;0.90;;;21.50;99.90;;;;;;5022145;28;20018;-71
2022/07/02 09:33:29;;;;;;;2.72;1.10;;;21.60;99.90;;;;;;5017606;28;20034;-70
2022/07/02 09:36:00;;;;;;;1.02;0.75;;;21.70;99.90;;;;;;5017950;28;20026;-74
2022/07/02 09:38:28;;;;;;;0.55;0.55;;;21.90;99.90;;;;;;5018335;28;20054;-72
2022/07/02 09:40:56;;;;;;;2.28;0.98;;;21.80;99.90;;;;;;5017813;28;20022;-72
2022/07/02 09:43:32;;;;;;;1.15;0.75;;;21.70;99.90;;;;;;5022160;28;21431;-70
2022/07/02 09:46:12;;;;;;;2.83;0.80;;;21.60;99.90;;;;;;5018667;28;20044;-76
2022/07/02 09:48:38;;;;;;;1.50;0.90;;;21.80;99.90;;;;;;5022627;28;20096;-70
2022/07/02 09:51:04;;;;;;;9.20;1.05;;;21.90;99.90;;;;;;5022289;28;20437;-70
2022/07/02 09:53:30;;;;;;;3.17;0.57;;;22.10;99.90;;;;;;5021215;28;20025;-70
2022/07/02 09:55:56;;;;;;;0.80;0.55;;;22.30;99.90;;;;;;5019733;28;20398;-73
2022/07/02 09:58:27;;;;;;;0.40;0.40;;;22.50;99.90;;;;;;5021714;28;20022;-72
2022/07/02 10:00:54;;;;;;;1.63;0.63;;;22.70;99.90;;;;;;5019874;28;20080;-72
2022/07/02 10:03:20;;;;;;;1.77;0.77;;;22.70;99.90;;;;;;5019155;28;20077;-71
2022/07/02 10:05:50;;;;;;;4.20;0.70;;;22.50;99.90;;;;;;5021944;28;20026;-70
2022/07/02 10:08:17;;;;;;;2.15;1.05;;;22.20;99.90;;;;;;5021631;28;20461;-71
2022/07/02 10:10:43;;;;;;;1.60;0.68;;;22.10;99.90;;;;;;5021593;28;20026;-70
2022/07/02 10:13:12;;;;;;;0.60;0.55;;;21.90;99.90;;;;;;5022379;28;20033;-75
2022/07/02 10:15:49;;;;;;;1.02;0.60;;;21.80;99.90;;;;;;5021279;28;20029;-70
2022/07/02 10:18:16;;;;;;;1.27;0.70;;;21.70;99.90;;;;;;5022272;28;20034;-72
2022/07/02 10:20:42;;;;;;;1.33;0.75;;;21.80;99.90;;;;;;5021517;28;20014;-72
2022/07/02 10:23:08;;;;;;;0.93;0.43;;;22.00;99.90;;;;;;5022123;28;20090;-70
2022/07/02 10:25:34;;;;;;;0.85;0.47;;;22.20;99.90;;;;;;5018404;28;20038;-70
2022/07/02 10:28:00;;;;;;;15.13;0.50;;;22.50;99.90;;;;;;5020878;28;20030;-73
2022/07/02 10:30:34;;;;;;;1.05;0.40;;;22.60;99.90;;;;;;5020099;28;20106;-72
2022/07/02 10:33:28;;;;;;;1.25;0.88;;;22.60;99.90;;;;;;5021246;28;20026;-73
2022/07/02 10:35:57;;;;;;;2.03;0.80;;;22.50;99.90;;;;;;5021396;28;20040;-71
2022/07/02 10:38:31;;;;;;;0.40;0.30;;;22.50;99.90;;;;;;5018939;28;20048;-73
2022/07/02 10:40:56;;;;;;;3.78;0.82;;;22.40;99.90;;;;;;5022063;28;20044;-70
2022/07/02 10:43:23;;;;;;;1.08;0.70;;;22.30;99.90;;;;;;5021727;28;20061;-71
2022/07/02 10:45:49;;;;;;;0.95;0.50;;;22.30;99.90;;;;;;5021908;28;20086;-69
2022/07/02 10:48:15;;;;;;;0.68;0.45;;;22.40;99.90;;;;;;5020246;28;20061;-69
2022/07/02 10:50:46;;;;;;;0.63;0.55;;;22.70;99.90;;;;;;5020436;28;20037;-70
2022/07/02 10:53:19;;;;;;;1.60;0.82;;;22.90;99.90;;;;;;5022064;28;20026;-70
2022/07/02 10:55:57;;;;;;;0.40;0.40;;;23.00;99.90;;;;;;5021847;28;20014;-71
2022/07/02 10:58:36;;;;;;;2.00;0.90;;;23.00;99.90;;;;;;5021233;28;20030;-70
2022/07/02 11:01:12;;;;;;;0.15;0.13;;;22.90;99.90;;;;;;5021616;28;20156;-72
2022/07/02 11:03:59;;;;;;;1.65;0.68;;;23.00;99.90;;;;;;5019051;28;20028;-71
2022/07/02 11:06:31;;;;;;;0.43;0.30;;;23.30;99.90;;;;;;5020959;28;20033;-70
2022/07/02 11:08:59;;;;;;;1.17;0.40;;;23.60;99.90;;;;;;5021371;28;20049;-73
2022/07/02 11:11:30;;;;;;;1.25;0.52;;;23.90;99.90;;;;;;5020992;28;20060;-69
2022/07/02 11:14:00;;;;;;;1.08;0.50;;;24.10;99.90;;;;;;5021537;28;20454;-74
2022/07/02 11:16:29;;;;;;;2.58;0.60;;;23.90;99.90;;;;;;5021721;28;20196;-72
2022/07/02 11:18:58;;;;;;;0.45;0.30;;;23.60;99.90;;;;;;5020813;28;20030;-68
2022/07/02 11:21:24;;;;;;;0.28;0.28;;;23.50;99.90;;;;;;5020496;28;20038;-70
2022/07/02 11:23:52;;;;;;;1.20;0.68;;;23.70;99.90;;;;;;5021801;28;20030;-70
2022/07/02 11:26:27;;;;;;;0.93;0.50;;;23.90;99.90;;;;;;5019381;28;20023;-73
2022/07/02 11:28:54;;;;;;;0.55;0.50;;;23.90;99.90;;;;;;5020105;28;20113;-72
2022/07/02 11:31:22;;;;;;;16.23;1.10;;;23.80;99.90;;;;;;5020651;28;20038;-68
2022/07/02 11:33:53;;;;;;;0.88;0.65;;;23.80;99.90;;;;;;5020786;28;20026;-74
2022/07/02 11:36:20;;;;;;;5.88;0.55;;;23.90;99.90;;;;;;5020882;28;20033;-71
2022/07/02 11:38:49;;;;;;;1.48;0.55;;;23.90;99.90;;;;;;5021164;28;20032;-72
2022/07/02 11:41:35;;;;;;;0.63;0.60;;;23.80;99.90;;;;;;5019134;28;20470;-72
2022/07/02 11:44:14;;;;;;;0.60;0.43;;;23.90;99.90;;;;;;5020769;28;20072;-73
2022/07/02 11:46:42;;;;;;;1.33;0.47;;;23.80;99.90;;;;;;5019921;28;20041;-77
2022/07/02 11:49:16;;;;;;;1.27;0.73;;;23.80;99.90;;;;;;5020806;28;20121;-72
2022/07/02 11:51:44;;;;;;;0.70;0.60;;;23.90;99.90;;;;;;5022748;28;20079;-74
2022/07/02 11:54:12;;;;;;;1.27;0.70;;;24.10;99.90;;;;;;5024353;28;20014;-70
2022/07/02 11:56:39;;;;;;;1.20;0.70;;;24.10;99.90;;;;;;5024963;28;20065;-70
2022/07/02 11:59:08;;;;;;;1.17;0.70;;;24.10;99.90;;;;;;5024697;28;20026;-72
2022/07/02 12:01:34;;;;;;;3.67;0.65;;;24.00;99.90;;;;;;5024080;28;20042;-72
2022/07/02 12:04:08;;;;;;;4.05;0.80;;;23.90;99.90;;;;;;5024784;28;20033;-79
2022/07/02 12:06:40;;;;;;;0.88;0.80;;;23.70;99.90;;;;;;5022633;28;20026;-74
2022/07/02 12:09:08;;;;;;;1.83;0.70;;;23.60;99.90;;;;;;5024396;28;20113;-72
2022/07/02 12:11:36;;;;;;;1.17;1.02;;;23.90;99.90;;;;;;5024012;28;20033;-73
2022/07/02 12:14:04;;;;;;;1.73;1.08;;;24.30;99.90;;;;;;5024280;28;20044;-72
2022/07/02 12:16:34;;;;;;;2.30;0.55;;;24.60;99.90;;;;;;5020606;28;20018;-73
2022/07/02 12:19:02;;;;;;;1.52;0.70;;;24.90;99.90;;;;;;5020343;28;20045;-74
2022/07/02 12:21:38;;;;;;;0.80;0.75;;;24.90;99.90;;;;;;5022899;28;20034;-75
2022/07/02 12:24:16;;;;;;;1.88;0.80;;;24.70;99.90;;;;;;5017452;28;20089;-72
2022/07/02 12:26:44;;;;;;;3.72;1.42;;;24.50;99.90;;;;;;5020176;28;20026;-74
2022/07/02 12:32:23;;;;;;;0.82;0.65;;;24.90;99.90;;;;;;5019168;28;20061;-72
2022/07/02 12:34:50;;;;;;;0.98;0.68;;;24.90;99.90;;;;;;5022671;28;20077;-75
2022/07/02 12:37:31;;;;;;;1.13;0.82;;;24.60;99.90;;;;;;5022663;28;20034;-75
2022/07/02 12:40:11;;;;;;;1.70;0.60;;;24.50;99.90;;;;;;5022880;28;20387;-72
2022/07/02 12:42:54;;;;;;;0.65;0.50;;;24.70;99.90;;;;;;5023661;28;20050;-70
2022/07/02 12:45:26;;;;;;;1.20;0.70;;;25.00;99.90;;;;;;5024308;28;20021;-73
2022/07/02 12:48:02;;;;;;;1.67;0.80;;;25.20;99.90;;;;;;5020674;28;20088;-74
2022/07/02 12:50:34;;;;;;;2.35;0.95;;;25.10;99.90;;;;;;5023646;28;20113;-71
2022/07/02 12:53:15;;;;;;;0.88;0.68;;;25.30;99.90;;;;;;5023597;28;20053;-76
2022/07/02 12:55:50;;;;;;;3.88;0.80;;;25.60;99.90;;;;;;5023164;28;20086;-70